createdAt,value
2018-12-11T00:00:35.148Z,4.10
2018-12-11T00:03:01.019Z,4.37
2018-12-11T00:05:26.865Z,3.43
2018-12-11T00:07:52.752Z,3.60
2018-12-11T00:10:18.612Z,3.60
2018-12-11T00:12:44.491Z,3.10
2018-12-11T00:15:10.563Z,2.57
2018-12-11T00:17:36.550Z,3.30
2018-12-11T00:20:03.841Z,3.63
2018-12-11T00:22:29.766Z,3.30
2018-12-11T00:24:55.714Z,3.03
2018-12-11T00:27:21.589Z,3.07
2018-12-11T00:29:47.426Z,3.23
2018-12-11T00:32:13.442Z,3.83
2018-12-11T00:34:39.335Z,3.30
2018-12-11T00:37:05.229Z,2.50
2018-12-11T00:39:31.170Z,2.80
2018-12-11T00:41:57.037Z,3.90
2018-12-11T00:44:22.922Z,3.40
2018-12-11T00:46:48.805Z,3.23
2018-12-11T00:49:14.670Z,3.43
2018-12-11T00:51:40.535Z,3.43
2018-12-11T00:54:06.438Z,3.60
2018-12-11T00:56:32.278Z,3.10
2018-12-11T00:58:58.138Z,3.37
2018-12-11T01:01:24.006Z,3.50
2018-12-11T01:03:49.894Z,2.53
2018-12-11T01:06:15.761Z,3.37
2018-12-11T01:08:41.602Z,4.37
2018-12-11T01:11:07.571Z,3.10
2018-12-11T01:13:33.437Z,4.00
2018-12-11T01:15:59.290Z,3.77
2018-12-11T01:18:25.143Z,3.37
2018-12-11T01:20:51.019Z,3.30
2018-12-11T01:23:16.863Z,3.23
2018-12-11T01:25:42.767Z,3.80
2018-12-11T01:28:08.603Z,4.17
2018-12-11T01:30:34.464Z,3.70
2018-12-11T01:33:00.343Z,4.50
2018-12-11T01:35:26.187Z,4.13
2018-12-11T01:37:52.034Z,3.23
2018-12-11T01:40:18.002Z,4.07
2018-12-11T01:42:43.907Z,4.77
2018-12-11T01:45:09.922Z,2.57
2018-12-11T01:47:35.778Z,3.80
2018-12-11T01:50:01.650Z,3.47
2018-12-11T01:52:27.527Z,4.37
2018-12-11T01:54:53.400Z,4.07
2018-12-11T01:57:19.258Z,3.23
2018-12-11T01:59:45.143Z,3.53
2018-12-11T02:02:11.006Z,3.73
2018-12-11T02:04:36.867Z,3.70
2018-12-11T02:07:02.746Z,4.33
2018-12-11T02:09:28.623Z,3.70
2018-12-11T02:11:54.500Z,2.80
2018-12-11T02:14:20.338Z,3.93
2018-12-11T02:16:46.322Z,4.20
2018-12-11T02:19:12.203Z,4.17
2018-12-11T02:21:41.998Z,3.60
2018-12-11T02:24:05.974Z,3.20
2018-12-11T02:26:31.833Z,5.37
2018-12-11T02:28:57.695Z,3.80
2018-12-11T02:31:23.648Z,4.40
2018-12-11T02:33:49.568Z,3.20
2018-12-11T02:36:15.428Z,4.77
2018-12-11T02:38:41.277Z,3.80
2018-12-11T02:41:07.129Z,3.33
2018-12-11T02:43:33.107Z,3.13
2018-12-11T02:45:58.973Z,3.17
2018-12-11T02:48:24.843Z,4.23
2018-12-11T02:50:50.699Z,3.67
2018-12-11T02:53:16.560Z,4.50
2018-12-11T02:55:42.438Z,3.50
2018-12-11T02:58:08.321Z,3.10
2018-12-11T03:00:34.168Z,4.30
2018-12-11T03:03:00.072Z,3.10
2018-12-11T03:05:25.905Z,3.43
2018-12-11T03:07:51.748Z,3.17
2018-12-11T03:10:17.618Z,4.60
2018-12-11T03:12:43.451Z,3.47
2018-12-11T03:15:09.314Z,2.87
2018-12-11T03:17:35.283Z,2.40
2018-12-11T03:20:01.164Z,3.37
2018-12-11T03:22:27.016Z,3.33
2018-12-11T03:24:52.871Z,5.20
2018-12-11T03:27:18.745Z,3.13
2018-12-11T03:29:44.593Z,3.27
2018-12-11T03:32:10.470Z,3.30
2018-12-11T03:34:36.333Z,4.60
2018-12-11T03:37:02.207Z,2.77
2018-12-11T03:39:28.187Z,2.77
2018-12-11T03:41:54.386Z,2.80
2018-12-11T03:44:20.223Z,2.40
2018-12-11T03:46:46.084Z,2.50
2018-12-11T03:49:12.056Z,3.63
2018-12-11T03:51:54.274Z,2.83
2018-12-11T03:54:20.143Z,3.70
2018-12-11T03:56:46.003Z,3.10
2018-12-11T03:59:11.860Z,3.37
2018-12-11T04:01:37.771Z,2.93
2018-12-11T04:04:03.615Z,2.67
2018-12-11T04:06:29.502Z,2.60
2018-12-11T04:08:55.399Z,2.70
2018-12-11T04:11:21.274Z,3.10
2018-12-11T04:13:47.103Z,2.97
2018-12-11T04:16:13.039Z,3.97
2018-12-11T04:18:38.994Z,3.27
2018-12-11T04:21:04.852Z,2.80
2018-12-11T04:23:30.790Z,3.30
2018-12-11T04:25:56.614Z,4.80
2018-12-11T04:28:22.463Z,3.93
2018-12-11T04:30:48.313Z,2.70
2018-12-11T04:33:14.201Z,3.80
2018-12-11T04:35:40.057Z,3.93
2018-12-11T04:38:06.144Z,3.10
2018-12-11T04:40:32.074Z,2.53
2018-12-11T04:42:57.943Z,3.03
2018-12-11T04:48:16.606Z,3.37
2018-12-11T04:50:42.463Z,3.73
2018-12-11T04:53:08.402Z,2.20
2018-12-11T04:55:34.231Z,6.00
2018-12-11T04:58:00.096Z,4.00
2018-12-11T05:00:25.978Z,8.50
2018-12-11T05:02:51.852Z,7.27
2018-12-11T05:05:17.731Z,4.50
2018-12-11T05:07:43.572Z,6.90
2018-12-11T05:10:09.572Z,3.87
2018-12-11T05:12:35.495Z,5.70
2018-12-11T05:15:02.542Z,3.83
2018-12-11T05:17:28.547Z,3.30
2018-12-11T05:19:54.422Z,3.13
2018-12-11T05:22:20.287Z,3.20
2018-12-11T05:24:46.173Z,2.63
2018-12-11T05:27:12.040Z,3.20
2018-12-11T05:29:37.894Z,3.37
2018-12-11T05:32:03.869Z,3.20
2018-12-11T05:34:29.778Z,3.17
2018-12-11T05:36:55.784Z,2.33
2018-12-11T05:39:21.641Z,3.63
2018-12-11T05:41:47.522Z,3.20
2018-12-11T05:44:13.370Z,2.60
2018-12-11T05:46:39.267Z,3.97
2018-12-11T05:49:05.138Z,3.80
2018-12-11T05:51:31.007Z,3.17
2018-12-11T05:53:56.855Z,4.03
2018-12-11T05:56:22.735Z,3.80
2018-12-11T05:58:48.590Z,2.43
2018-12-11T06:01:14.511Z,2.60
2018-12-11T06:03:40.366Z,3.00
2018-12-11T06:06:06.226Z,2.90
2018-12-11T06:08:32.109Z,2.73
2018-12-11T06:10:57.978Z,2.70
2018-12-11T06:13:23.854Z,4.40
2018-12-11T06:15:49.839Z,2.77
2018-12-11T06:18:15.710Z,3.80
2018-12-11T06:20:41.568Z,3.47
2018-12-11T06:23:07.438Z,3.03
2018-12-11T06:25:33.314Z,3.70
2018-12-11T06:27:59.206Z,3.20
2018-12-11T06:30:25.054Z,5.40
2018-12-11T06:32:50.927Z,2.70
2018-12-11T06:35:16.779Z,3.20
2018-12-11T06:37:42.646Z,3.50
2018-12-11T06:40:08.538Z,3.73
2018-12-11T06:42:34.559Z,3.40
2018-12-11T06:45:00.459Z,3.07
2018-12-11T06:47:26.404Z,3.60
2018-12-11T06:49:52.273Z,3.20
2018-12-11T06:52:18.147Z,2.50
2018-12-11T06:54:44.053Z,3.40
2018-12-11T06:57:09.882Z,5.53
2018-12-11T06:59:35.755Z,2.90
2018-12-11T07:02:01.607Z,3.60
2018-12-11T07:04:27.539Z,4.10
2018-12-11T07:06:53.378Z,2.50
2018-12-11T07:09:19.274Z,3.30
2018-12-11T07:11:45.134Z,3.07
2018-12-11T07:14:11.035Z,2.63
2018-12-11T07:16:36.919Z,3.53
2018-12-11T07:19:02.918Z,2.90
2018-12-11T07:21:28.893Z,3.23
2018-12-11T07:23:54.770Z,4.50
2018-12-11T07:26:20.722Z,3.50
2018-12-11T07:28:46.550Z,3.73
2018-12-11T07:31:12.551Z,3.07
2018-12-11T07:33:38.405Z,2.70
2018-12-11T07:36:04.262Z,3.47
2018-12-11T07:38:30.126Z,3.90
2018-12-11T07:40:56.015Z,3.80
2018-12-11T07:43:21.888Z,3.93
2018-12-11T07:45:47.734Z,4.27
2018-12-11T07:48:13.619Z,3.00
2018-12-11T07:50:39.468Z,2.43
2018-12-11T07:53:06.388Z,2.53
2018-12-11T07:55:32.591Z,3.57
2018-12-11T07:57:58.486Z,3.30
2018-12-11T08:00:24.479Z,4.37
2018-12-11T08:02:50.442Z,3.30
2018-12-11T08:05:16.362Z,3.33
2018-12-11T08:07:42.242Z,4.20
2018-12-11T08:10:08.092Z,6.00
2018-12-11T08:12:33.949Z,3.40
2018-12-11T08:14:59.811Z,3.07
2018-12-11T08:17:25.680Z,3.60
2018-12-11T08:19:51.546Z,3.47
2018-12-11T08:22:17.422Z,2.20
2018-12-11T08:24:43.286Z,3.40
2018-12-11T08:27:09.159Z,3.20
2018-12-11T08:29:35.125Z,5.03
2018-12-11T08:32:01.010Z,3.53
2018-12-11T08:34:33.821Z,2.83
2018-12-11T08:36:59.777Z,3.00
2018-12-11T08:39:27.065Z,3.50
2018-12-11T08:41:53.216Z,3.67
2018-12-11T08:44:19.072Z,4.17
2018-12-11T08:46:44.949Z,4.50
2018-12-11T08:49:10.846Z,3.50
2018-12-11T08:51:36.730Z,6.07
2018-12-11T08:54:02.698Z,3.60
2018-12-11T08:56:28.714Z,3.03
2018-12-11T08:58:55.392Z,4.40
2018-12-11T09:01:21.411Z,3.20
2018-12-11T09:03:47.309Z,6.77
2018-12-11T09:06:13.205Z,4.40
2018-12-11T09:08:39.065Z,3.43
2018-12-11T09:11:05.118Z,3.60
2018-12-11T09:13:31.010Z,3.40
2018-12-11T09:15:56.871Z,2.50
2018-12-11T09:18:22.718Z,3.40
2018-12-11T09:20:48.601Z,3.27
2018-12-11T09:23:14.485Z,3.50
2018-12-11T09:25:40.387Z,3.10
2018-12-11T09:28:10.951Z,3.30
2018-12-11T09:30:34.278Z,2.67
2018-12-11T09:33:00.176Z,3.47
2018-12-11T09:35:26.825Z,3.20
2018-12-11T09:37:53.158Z,2.23
2018-12-11T09:40:24.404Z,3.40
2018-12-11T09:42:46.960Z,3.13
2018-12-11T09:45:12.920Z,2.20
2018-12-11T09:47:38.766Z,2.33
2018-12-11T09:50:06.112Z,3.73
2018-12-11T09:52:31.972Z,4.33
2018-12-11T09:54:57.843Z,4.20
2018-12-11T09:57:23.704Z,3.33
2018-12-11T09:59:49.633Z,3.97
2018-12-11T10:02:15.618Z,2.83
2018-12-11T10:04:41.516Z,3.90
2018-12-11T10:07:07.387Z,3.40
2018-12-11T10:09:33.309Z,4.00
2018-12-11T10:11:59.156Z,3.97
2018-12-11T10:14:25.059Z,3.33
2018-12-11T10:16:50.914Z,3.77
2018-12-11T10:19:16.785Z,4.33
2018-12-11T10:21:42.621Z,3.20
2018-12-11T10:24:08.514Z,4.17
2018-12-11T10:26:34.415Z,3.70
2018-12-11T10:29:00.410Z,3.17
2018-12-11T10:31:26.263Z,3.50
2018-12-11T10:33:52.650Z,3.27
2018-12-11T10:36:18.540Z,4.17
2018-12-11T10:38:44.487Z,3.70
2018-12-11T10:41:10.353Z,3.20
2018-12-11T10:43:36.314Z,3.30
2018-12-11T10:46:02.298Z,2.90
2018-12-11T10:48:28.280Z,3.37
2018-12-11T10:50:54.204Z,2.27
2018-12-11T10:53:21.134Z,3.30
2018-12-11T10:55:47.053Z,4.30
2018-12-11T10:58:12.925Z,3.03
2018-12-11T11:00:43.598Z,2.83
2018-12-11T11:03:09.446Z,3.00
2018-12-11T11:05:35.326Z,3.07
2018-12-11T11:08:01.273Z,3.20
2018-12-11T11:10:27.146Z,3.63
2018-12-11T11:12:53.135Z,3.60
2018-12-11T11:15:19.099Z,2.90
2018-12-11T11:17:45.086Z,3.67
2018-12-11T11:20:10.985Z,4.13
2018-12-11T11:22:36.891Z,3.73
2018-12-11T11:25:04.247Z,4.17
2018-12-11T11:27:30.170Z,3.70
2018-12-11T11:29:56.032Z,3.03
2018-12-11T11:32:21.922Z,2.50
2018-12-11T11:34:47.799Z,2.13
2018-12-11T11:37:13.717Z,5.93
2018-12-11T11:39:39.594Z,4.33
2018-12-11T11:42:05.589Z,3.33
2018-12-11T11:44:31.491Z,3.33
2018-12-11T11:46:57.372Z,3.03
2018-12-11T11:49:23.247Z,2.17
2018-12-11T11:51:49.110Z,4.43
2018-12-11T11:54:15.012Z,2.80
2018-12-11T11:56:40.886Z,3.60
2018-12-11T11:59:06.785Z,3.40
2018-12-11T12:01:32.627Z,3.70
2018-12-11T12:03:58.596Z,3.30
2018-12-11T12:06:24.431Z,3.50
2018-12-11T12:08:50.306Z,3.60
2018-12-11T12:11:16.220Z,3.13
2018-12-11T12:13:42.170Z,3.70
2018-12-11T12:16:08.031Z,3.57
2018-12-11T12:18:33.873Z,3.00
2018-12-11T12:20:59.755Z,3.20
2018-12-11T12:23:25.650Z,3.40
2018-12-11T12:25:51.551Z,4.10
2018-12-11T12:28:17.493Z,4.03
2018-12-11T12:30:44.037Z,3.60
2018-12-11T12:33:09.991Z,3.50
2018-12-11T12:35:35.865Z,2.57
2018-12-11T12:38:01.751Z,3.33
2018-12-11T12:40:27.620Z,2.73
2018-12-11T12:42:53.508Z,3.00
2018-12-11T12:45:19.389Z,4.63
2018-12-11T12:47:45.288Z,3.00
2018-12-11T12:50:11.161Z,3.30
2018-12-11T12:52:37.026Z,3.67
2018-12-11T12:55:04.014Z,4.87
2018-12-11T12:57:29.872Z,4.80
2018-12-11T12:59:55.751Z,3.57
2018-12-11T13:02:21.598Z,2.70
2018-12-11T13:04:47.462Z,5.23
2018-12-11T13:07:13.322Z,3.37
2018-12-11T13:09:39.292Z,2.80
2018-12-11T13:12:05.299Z,3.03
2018-12-11T13:14:31.172Z,4.13
2018-12-11T13:16:57.022Z,2.70
2018-12-11T13:19:22.894Z,2.93
2018-12-11T13:21:48.771Z,2.77
2018-12-11T13:24:14.631Z,3.50
2018-12-11T13:26:40.585Z,3.00
2018-12-11T13:29:06.526Z,3.37
2018-12-11T13:31:32.424Z,3.10
2018-12-11T13:33:58.317Z,2.80
2018-12-11T13:36:24.202Z,3.00
2018-12-11T13:38:50.175Z,3.30
2018-12-11T13:41:17.060Z,3.90
2018-12-11T13:43:43.047Z,4.70
2018-12-11T13:46:08.922Z,3.20
2018-12-11T13:48:34.877Z,4.00
2018-12-11T13:51:00.779Z,3.83
2018-12-11T13:53:26.662Z,2.70
2018-12-11T13:55:52.540Z,3.20
2018-12-11T13:58:18.406Z,3.93
2018-12-11T14:00:44.430Z,3.63
2018-12-11T14:03:11.439Z,3.17
2018-12-11T14:05:38.868Z,3.53
2018-12-11T14:08:06.659Z,2.83
2018-12-11T14:10:32.633Z,3.77
2018-12-11T14:12:58.579Z,3.33
2018-12-11T14:15:24.556Z,2.60
2018-12-11T14:17:50.959Z,3.30
2018-12-11T14:20:17.011Z,2.53
2018-12-11T14:22:43.024Z,3.43
2018-12-11T14:25:08.943Z,3.20
2018-12-11T14:27:34.845Z,3.37
2018-12-11T14:30:00.747Z,2.40
2018-12-11T14:32:26.756Z,3.13
2018-12-11T14:34:52.634Z,2.90
2018-12-11T14:37:18.514Z,3.23
2018-12-11T14:39:44.533Z,3.20
2018-12-11T14:42:10.399Z,4.00
2018-12-11T14:44:36.318Z,2.90
2018-12-11T14:47:02.323Z,3.60
2018-12-11T14:49:28.276Z,3.40
2018-12-11T14:51:54.177Z,2.37
2018-12-11T14:54:20.067Z,3.13
2018-12-11T14:56:45.962Z,3.20
2018-12-11T14:59:11.862Z,2.67
2018-12-11T15:01:37.763Z,3.93
2018-12-11T15:04:04.009Z,2.70
2018-12-11T15:06:30.039Z,3.90
2018-12-11T15:08:57.983Z,3.47
2018-12-11T15:11:23.906Z,2.50
2018-12-11T15:13:49.813Z,3.27
2018-12-11T15:16:15.933Z,3.20
2018-12-11T15:18:41.847Z,2.43
2018-12-11T15:21:08.731Z,4.63
2018-12-11T15:23:34.674Z,2.60
2018-12-11T15:26:00.557Z,2.80
2018-12-11T15:28:26.476Z,3.53
2018-12-11T15:31:00.473Z,8.77
2018-12-11T15:33:26.412Z,2.77
2018-12-11T15:35:52.296Z,4.50
2018-12-11T15:38:18.295Z,5.73
2018-12-11T15:40:44.158Z,3.13
2018-12-11T15:43:10.259Z,4.20
2018-12-11T15:45:36.164Z,4.23
2018-12-11T15:48:02.187Z,4.20
2018-12-11T15:50:28.070Z,3.60
2018-12-11T15:52:53.929Z,4.60
2018-12-11T15:55:19.882Z,4.67
2018-12-11T15:57:45.751Z,4.60
2018-12-11T16:00:11.972Z,3.90
2018-12-11T16:02:37.848Z,4.00
2018-12-11T16:05:05.651Z,3.00
2018-12-11T16:07:31.542Z,4.20
2018-12-11T16:09:57.447Z,4.53
2018-12-11T16:12:33.184Z,4.23
2018-12-11T16:15:02.299Z,4.20
2018-12-11T16:17:28.336Z,3.70
2018-12-11T16:19:54.240Z,4.30
2018-12-11T16:22:20.103Z,3.47
2018-12-11T16:24:46.910Z,3.53
2018-12-11T16:27:13.013Z,3.47
2018-12-11T16:29:38.900Z,3.27
2018-12-11T16:32:04.788Z,2.97
2018-12-11T16:34:30.663Z,4.13
2018-12-11T16:36:56.555Z,3.10
2018-12-11T16:39:22.461Z,2.80
2018-12-11T16:44:41.103Z,2.77
2018-12-11T16:47:07.252Z,4.70
2018-12-11T16:49:33.142Z,3.60
2018-12-11T16:51:59.039Z,3.30
2018-12-11T16:54:24.931Z,3.27
2018-12-11T16:56:50.956Z,3.80
2018-12-11T16:59:16.827Z,3.90
2018-12-11T17:01:42.698Z,4.30
2018-12-11T17:04:08.588Z,2.40
2018-12-11T17:06:34.501Z,4.13
2018-12-11T17:09:00.407Z,5.03
2018-12-11T17:11:26.335Z,4.50
2018-12-11T17:13:52.205Z,5.27
2018-12-11T17:16:18.087Z,4.80
2018-12-11T17:18:45.406Z,5.50
2018-12-11T17:21:11.403Z,5.73
2018-12-11T17:23:37.307Z,6.57
2018-12-11T17:26:03.310Z,5.70
2018-12-11T17:28:29.217Z,5.80
2018-12-11T17:30:55.147Z,5.93
2018-12-11T17:33:21.031Z,5.87
2018-12-11T17:35:46.941Z,6.07
2018-12-11T17:38:12.828Z,6.57
2018-12-11T17:40:38.689Z,6.70
2018-12-11T17:43:04.567Z,6.10
2018-12-11T17:45:30.477Z,4.80
2018-12-11T17:47:56.359Z,7.57
2018-12-11T17:50:22.231Z,6.17
2018-12-11T17:52:48.099Z,5.67
2018-12-11T17:55:13.974Z,3.40
2018-12-11T17:57:39.846Z,3.73
2018-12-11T18:00:06.158Z,3.90
2018-12-11T18:02:32.769Z,5.10
2018-12-11T18:04:58.652Z,4.03
2018-12-11T18:07:24.618Z,4.90
2018-12-11T18:09:50.518Z,5.07
2018-12-11T18:12:16.407Z,4.73
2018-12-11T18:14:42.350Z,7.40
2018-12-11T18:17:08.279Z,5.80
2018-12-11T18:19:34.167Z,6.53
2018-12-11T18:22:00.083Z,5.87
2018-12-11T18:24:26.007Z,8.40
2018-12-11T18:26:52.934Z,9.40
2018-12-11T18:29:18.827Z,14.87
2018-12-11T18:31:44.756Z,8.40
2018-12-11T18:34:11.257Z,8.03
2018-12-11T18:36:37.571Z,6.80
2018-12-11T18:39:05.547Z,6.80
2018-12-11T18:41:31.459Z,6.60
2018-12-11T18:43:58.130Z,7.13
2018-12-11T18:46:24.155Z,7.00
2018-12-11T18:48:50.094Z,5.80
2018-12-11T18:51:16.020Z,8.93
2018-12-11T18:53:42.063Z,5.93
2018-12-11T18:56:08.006Z,6.60
2018-12-11T18:58:34.436Z,5.03
2018-12-11T19:01:00.571Z,4.80
2018-12-11T19:03:26.632Z,6.20
2018-12-11T19:05:52.584Z,4.07
2018-12-11T19:08:18.502Z,5.90
2018-12-11T19:10:44.377Z,5.77
2018-12-11T19:13:10.268Z,5.13
2018-12-11T19:15:36.168Z,6.33
2018-12-11T19:18:02.122Z,5.33
2018-12-11T19:20:28.099Z,5.13
2018-12-11T19:22:57.684Z,5.37
2018-12-11T19:25:23.634Z,5.00
2018-12-11T19:27:49.559Z,4.27
2018-12-11T19:30:15.545Z,8.40
2018-12-11T19:32:41.627Z,9.57
2018-12-11T19:35:07.832Z,6.83
2018-12-11T19:37:33.810Z,7.83
2018-12-11T19:40:02.250Z,6.87
2018-12-11T19:42:27.948Z,6.80
2018-12-11T19:44:54.220Z,5.83
2018-12-11T19:47:20.312Z,5.30
2018-12-11T19:49:46.542Z,4.80
2018-12-11T19:52:12.583Z,5.77
2018-12-11T19:54:38.564Z,4.33
2018-12-11T19:57:04.591Z,5.53
2018-12-11T19:59:30.573Z,6.87
2018-12-11T20:01:57.577Z,5.40
2018-12-11T20:04:23.774Z,5.90
2018-12-11T20:06:49.870Z,6.13
2018-12-11T20:09:15.875Z,6.10
2018-12-11T20:11:41.887Z,6.57
2018-12-11T20:14:07.936Z,7.20
2018-12-11T20:16:33.864Z,7.20
2018-12-11T20:18:59.834Z,6.00
2018-12-11T20:21:26.064Z,6.63
2018-12-11T20:23:52.738Z,6.50
2018-12-11T20:26:19.315Z,6.20
2018-12-11T20:28:45.989Z,6.30
2018-12-11T20:34:05.658Z,5.73
2018-12-11T20:36:31.654Z,6.40
2018-12-11T20:38:57.603Z,6.63
2018-12-11T20:41:23.603Z,8.33
2018-12-11T20:43:49.574Z,7.17
2018-12-11T20:46:15.498Z,6.10
2018-12-11T20:48:41.572Z,6.77
2018-12-11T20:51:07.539Z,6.57
2018-12-11T20:53:33.426Z,7.40
2018-12-11T20:55:59.358Z,7.97
2018-12-11T20:58:25.305Z,8.17
2018-12-11T21:00:51.295Z,7.33
2018-12-11T21:03:17.367Z,7.90
2018-12-11T21:05:43.642Z,8.73
2018-12-11T21:08:09.532Z,7.00
2018-12-11T21:10:35.458Z,7.93
2018-12-11T21:15:54.119Z,7.70
2018-12-11T21:18:20.049Z,8.33
2018-12-11T21:20:52.183Z,7.30
2018-12-11T21:23:18.160Z,7.23
2018-12-11T21:25:44.117Z,6.60
2018-12-11T21:28:10.312Z,6.70
2018-12-11T21:30:36.325Z,6.03
2018-12-11T21:33:03.279Z,7.23
2018-12-11T21:35:29.175Z,6.97
2018-12-11T21:37:55.096Z,6.80
2018-12-11T21:40:22.729Z,6.57
2018-12-11T21:42:48.789Z,6.90
2018-12-11T21:45:14.661Z,8.10
2018-12-11T21:47:40.567Z,6.57
2018-12-11T21:50:06.636Z,6.97
2018-12-11T21:52:33.471Z,5.80
2018-12-11T21:54:59.598Z,6.30
2018-12-11T21:57:25.527Z,6.77
2018-12-11T21:59:51.607Z,6.23
2018-12-11T22:02:17.527Z,6.10
2018-12-11T22:04:43.441Z,7.03
2018-12-11T22:07:09.309Z,6.50
2018-12-11T22:09:35.190Z,6.30
2018-12-11T22:12:03.522Z,6.13
2018-12-11T22:14:29.435Z,6.33
2018-12-11T22:16:55.388Z,5.80
2018-12-11T22:19:21.283Z,6.67
2018-12-11T22:21:47.253Z,5.90
2018-12-11T22:24:13.177Z,6.37
2018-12-11T22:26:40.111Z,5.60
2018-12-11T22:29:06.127Z,5.97
2018-12-11T22:31:32.001Z,6.73
2018-12-11T22:33:57.915Z,7.40
2018-12-11T22:36:23.787Z,7.40
2018-12-11T22:38:49.654Z,6.50
2018-12-11T22:41:15.663Z,6.80
2018-12-11T22:43:41.541Z,6.30
2018-12-11T22:46:08.583Z,6.70
2018-12-11T22:48:34.778Z,6.57
2018-12-11T22:51:00.783Z,6.60
2018-12-11T22:53:26.854Z,5.77
2018-12-11T22:55:55.014Z,6.33
2018-12-11T22:58:20.926Z,7.10
2018-12-11T23:00:47.049Z,5.67
2018-12-11T23:03:13.047Z,6.60
2018-12-11T23:05:38.937Z,6.03
2018-12-11T23:08:04.826Z,7.07
2018-12-11T23:10:30.686Z,5.80
2018-12-11T23:12:56.579Z,7.60
2018-12-11T23:15:22.759Z,7.20
2018-12-11T23:17:48.969Z,7.67
2018-12-11T23:20:15.280Z,5.80
2018-12-11T23:22:41.155Z,4.17
2018-12-11T23:25:07.505Z,5.93
2018-12-11T23:27:33.396Z,7.97
2018-12-11T23:30:00.104Z,3.33
2018-12-11T23:32:25.942Z,6.13
2018-12-11T23:34:53.066Z,5.90
2018-12-11T23:37:18.955Z,7.00
2018-12-11T23:39:45.022Z,7.53
2018-12-11T23:42:10.914Z,8.13
2018-12-11T23:44:36.738Z,7.10
2018-12-11T23:47:02.666Z,6.20
2018-12-11T23:49:28.527Z,5.10
2018-12-11T23:51:54.406Z,6.87
2018-12-11T23:54:20.926Z,6.60
2018-12-11T23:56:46.787Z,6.83
2018-12-11T23:59:12.654Z,6.63
